Time;durP1;ratioP1;P1;durP2;ratioP2;P2;SDS_P1;SDS_P2;PMS_P1;PMS_P2;Temp;Humidity;BMP_temperature;BMP_pressure;BME280_temperature;BME280_humidity;BME280_pressure;Samples;Min_cycle;Max_cycle;Signal;HPM_P1;HPM_P2
2021/08/11 00:00:10;;;;;;;;;;;;;;;20.58;90.46;100618.97;1903556;75;21086;-60
2021/08/11 00:02:39;;;;;;;42.25;23.18;;;;;;;20.57;90.46;100614.61;1862814;77;20110;-60
2021/08/11 00:05:09;;;;;;;40.20;24.27;;;;;;;20.59;90.36;100616.67;1894827;75;21124;-60
2021/08/11 00:07:38;;;;;;;48.80;28.10;;;;;;;20.58;90.36;100612.28;1894848;76;21120;-60
2021/08/11 00:10:08;;;;;;;43.45;25.52;;;;;;;20.60;90.35;100594.27;1894757;76;21480;-60
2021/08/11 00:12:37;;;;;;;39.20;19.52;;;;;;;20.61;90.35;100593.34;1894857;76;21046;-60
2021/08/11 00:15:07;;;;;;;30.82;16.30;;;;;;;20.62;90.34;100591.05;1894746;76;21098;-60
2021/08/11 00:17:36;;;;;;;29.02;16.80;;;;;;;20.61;90.33;100586.66;1894858;76;21128;-60
2021/08/11 00:20:06;;;;;;;34.18;18.23;;;;;;;20.60;90.33;100584.91;1894887;76;21006;-60
2021/08/11 00:22:35;;;;;;;39.15;19.15;;;;;;;20.59;90.37;100579.22;1892809;76;21054;-60
2021/08/11 00:25:04;;;;;;;34.30;17.45;;;;;;;20.59;90.34;100567.18;1891512;76;21074;-60
2021/08/11 00:27:33;;;;;;;38.78;18.70;;;;;;;20.59;90.30;100577.88;1891497;76;21065;-60
2021/08/11 00:30:02;;;;;;;37.98;18.42;;;;;;;20.57;90.36;100586.03;1891325;76;21038;-60
2021/08/11 00:32:31;;;;;;;39.38;21.60;;;;;;;20.55;90.39;100584.47;1891617;76;21504;-60
2021/08/11 00:35:00;;;;;;;56.77;36.90;;;;;;;20.56;90.42;100578.12;1891585;76;21496;-60
2021/08/11 00:37:29;;;;;;;97.45;74.80;;;;;;;20.56;90.41;100570.11;1891573;76;21578;-60
2021/08/11 00:40:02;;;;;;;118.30;88.65;;;;;;;20.59;90.44;100581.89;1891585;76;21574;-60
2021/08/11 00:42:31;;;;;;;146.00;99.33;;;;;;;20.59;90.47;100587.24;1891673;76;21050;-59
2021/08/11 00:45:04;;;;;;;86.20;53.87;;;;;;;20.60;90.51;100584.91;1891522;76;21061;-59
2021/08/11 00:47:36;;;;;;;71.53;41.60;;;;;;;20.60;90.60;100577.80;1891627;76;21121;-60
2021/08/11 00:50:06;;;;;;;84.65;47.73;;;;;;;20.61;90.60;100581.30;1891493;76;21135;-60
2021/08/11 00:52:35;;;;;;;70.55;36.88;;;;;;;20.63;90.56;100584.70;1891506;76;21132;-60
2021/08/11 00:55:07;;;;;;;43.90;22.60;;;;;;;20.65;90.53;100584.08;1890850;76;21176;-60
2021/08/11 00:57:38;;;;;;;38.33;20.68;;;;;;;20.63;90.50;100586.03;1857407;77;21060;-60
2021/08/11 01:00:08;;;;;;;52.38;27.75;;;;;;;20.62;90.49;100595.05;1897485;76;21020;-60
2021/08/11 01:02:39;;;;;;;46.58;24.80;;;;;;;20.61;90.52;100590.67;1897365;76;21039;-60
2021/08/11 01:05:09;;;;;;;50.28;24.80;;;;;;;20.60;90.59;100576.45;1897388;76;21132;-59
2021/08/11 01:07:39;;;;;;;44.98;23.38;;;;;;;20.61;90.59;100571.94;1857515;77;21107;-60
2021/08/11 01:10:09;;;;;;;39.90;22.30;;;;;;;20.62;90.54;100572.31;1897484;76;21052;-60
2021/08/11 01:12:41;;;;;;;41.58;21.50;;;;;;;20.62;90.54;100574.49;1897430;76;21051;-60
2021/08/11 01:15:11;;;;;;;33.53;17.27;;;;;;;20.61;90.59;100578.63;1897564;76;21048;-60
2021/08/11 01:17:41;;;;;;;23.90;13.55;;;;;;;20.63;90.57;100584.70;1897356;76;21035;-61
2021/08/11 01:20:11;;;;;;;25.50;14.40;;;;;;;20.63;90.57;100584.70;1897558;75;21096;-60
2021/08/11 01:23:01;;;;;;;26.50;14.83;;;;;;;20.62;90.62;100577.67;1892059;75;21088;-60
2021/08/11 01:25:38;;;;;;;25.77;13.98;;;;;;;20.63;90.66;100576.67;1881528;76;21543;-60
2021/08/11 01:28:36;;;;;;;27.30;15.20;;;;;;;20.64;90.69;100575.70;1847551;78;21052;-60
2021/08/11 01:31:14;;;;;;;24.52;13.03;;;;;;;20.64;90.69;100575.70;1848133;78;21078;-60
2021/08/11 01:34:02;;;;;;;19.95;12.30;;;;;;;20.66;90.62;100575.09;1849045;77;21123;-60
2021/08/11 01:36:52;;;;;;;22.90;12.78;;;;;;;20.66;90.58;100573.75;1881501;76;21048;-60
2021/08/11 01:39:43;;;;;;;25.35;13.90;;;;;;;20.66;90.53;100556.36;1861079;76;21570;-60
2021/08/11 01:42:19;;;;;;;26.23;14.38;;;;;;;20.68;90.53;100553.06;1860652;77;21120;-60
2021/08/11 01:45:09;;;;;;;23.20;13.10;;;;;;;20.69;90.50;100564.11;1848089;78;21083;-60
2021/08/11 01:47:49;;;;;;;23.52;13.05;;;;;;;20.70;90.50;100572.51;1881663;76;21044;-60
2021/08/11 01:50:20;;;;;;;17.80;11.93;;;;;;;20.71;90.52;100568.87;1881574;76;21175;-60
2021/08/11 01:52:51;;;;;;;23.77;13.60;;;;;;;20.72;90.51;100571.88;1881652;76;21037;-60
2021/08/11 01:55:20;;;;;;;25.20;14.03;;;;;;;20.75;90.54;100568.09;1847985;78;21138;-60
2021/08/11 01:57:53;;;;;;;26.40;13.75;;;;;;;20.75;90.53;100567.62;1861132;77;21132;-59
2021/08/11 02:00:24;;;;;;;22.58;12.50;;;;;;;20.76;90.51;100567.97;1861670;76;21129;-59
2021/08/11 02:02:55;;;;;;;26.80;13.13;;;;;;;20.76;90.52;100566.63;1861174;77;21497;-59
2021/08/11 02:05:31;;;;;;;26.33;12.68;;;;;;;20.77;90.51;100555.45;1861034;77;21050;-60
2021/08/11 02:08:00;;;;;;;23.87;12.93;;;;;;;20.76;90.52;100553.74;1860961;77;21063;-60
2021/08/11 02:10:31;;;;;;;21.57;11.88;;;;;;;20.75;90.53;100548.02;1861334;76;21075;-60
2021/08/11 02:13:01;;;;;;;22.30;12.58;;;;;;;20.73;90.49;100549.98;1861300;77;21030;-60
2021/08/11 02:15:31;;;;;;;23.87;13.25;;;;;;;20.73;90.47;100553.99;1861116;77;21050;-59
2021/08/11 02:18:01;;;;;;;22.62;12.43;;;;;;;20.72;90.44;100550.48;1861193;77;21178;-59
2021/08/11 02:20:31;;;;;;;25.37;12.80;;;;;;;20.71;90.44;100555.48;1861152;77;21541;-60
2021/08/11 02:23:01;;;;;;;23.12;13.90;;;;;;;20.71;90.43;100552.81;1868664;76;21070;-60
2021/08/11 02:25:32;;;;;;;24.18;13.00;;;;;;;20.71;90.41;100554.62;1894949;76;21536;-60
2021/08/11 02:28:12;;;;;;;23.80;12.80;;;;;;;20.71;90.42;100547.46;1894975;76;21125;-60
2021/08/11 02:31:06;;;;;;;22.17;13.22;;;;;;;20.72;90.40;100550.48;1894718;76;21045;-60
2021/08/11 02:33:47;;;;;;;26.15;13.88;;;;;;;20.71;90.37;100547.46;1894941;76;21121;-60
2021/08/11 02:36:22;;;;;;;24.40;13.18;;;;;;;20.72;90.35;100538.94;1894785;76;21042;-60
2021/08/11 02:38:53;;;;;;;28.98;13.62;;;;;;;20.71;90.41;100532.75;1894693;76;21046;-60
2021/08/11 02:41:24;;;;;;;26.55;14.47;;;;;;;20.73;90.48;100537.94;1894721;76;21014;-60
2021/08/11 02:43:57;;;;;;;25.12;13.83;;;;;;;20.74;90.49;100531.63;1894817;76;21109;-60
2021/08/11 02:46:30;;;;;;;40.27;21.27;;;;;;;20.76;90.50;100538.53;1901040;75;21031;-59
2021/08/11 02:49:02;;;;;;;55.08;36.88;;;;;;;20.78;90.49;100541.92;1900797;75;21228;-59
2021/08/11 02:51:34;;;;;;;58.13;38.65;;;;;;;20.79;90.48;100544.97;1894155;76;21069;-67
2021/08/11 02:54:05;;;;;;;35.00;18.92;;;;;;;20.79;90.55;100544.97;1894595;75;21030;-66
2021/08/11 02:56:35;;;;;;;29.90;15.50;;;;;;;20.80;90.56;100552.03;1894788;76;21120;-67
2021/08/11 02:59:04;;;;;;;27.58;14.38;;;;;;;20.81;90.58;100547.02;1863316;77;21505;-66
2021/08/11 03:01:35;;;;;;;26.30;14.03;;;;;;;20.82;90.58;100545.19;1884685;76;21098;-65
2021/08/11 03:04:05;;;;;;;27.67;15.23;;;;;;;20.80;90.60;100544.47;1898678;75;21043;-61
2021/08/11 03:06:35;;;;;;;32.03;15.45;;;;;;;20.81;90.61;100554.20;1897277;74;21545;-60
2021/08/11 03:09:06;;;;;;;25.48;14.87;;;;;;;20.79;90.68;100561.02;1897149;76;21049;-66
2021/08/11 03:11:36;;;;;;;25.48;13.72;;;;;;;20.79;90.69;100565.03;1910379;74;21524;-66
2021/08/11 03:14:08;;;;;;;24.60;14.18;;;;;;;20.78;90.73;100564.66;1928013;74;21536;-67
2021/08/11 03:16:41;;;;;;;25.43;13.72;;;;;;;20.79;90.77;100573.06;1908342;75;21042;-66
2021/08/11 03:19:10;;;;;;;26.27;13.48;;;;;;;20.78;90.83;100575.36;1863620;77;21474;-65
2021/08/11 03:21:40;;;;;;;33.85;14.35;;;;;;;20.79;90.87;100571.73;1888019;76;21054;-67
2021/08/11 03:24:10;;;;;;;25.48;13.30;;;;;;;20.81;90.87;100573.78;1924562;74;21098;-65
2021/08/11 03:26:39;;;;;;;29.27;13.00;;;;;;;20.85;90.85;100576.20;1919438;74;21094;-63
2021/08/11 03:29:08;;;;;;;23.38;14.20;;;;;;;20.88;90.86;100577.26;1906218;75;21095;-60
2021/08/11 03:31:38;;;;;;;28.32;17.60;;;;;;;20.89;90.84;100578.47;1904091;75;21062;-60
2021/08/11 03:34:07;;;;;;;37.45;16.80;;;;;;;20.93;90.80;100581.73;1906416;75;21474;-60
2021/08/11 03:36:37;;;;;;;33.33;18.27;;;;;;;20.96;90.78;100586.84;1906295;75;21139;-60
2021/08/11 03:39:06;;;;;;;30.10;16.30;;;;;;;20.97;90.79;100588.52;1940191;74;21186;-60
2021/08/11 03:41:36;;;;;;;32.78;16.97;;;;;;;20.98;90.76;100584.88;1924457;74;21115;-61
2021/08/11 03:44:05;;;;;;;32.17;19.15;;;;;;;21.00;90.74;100586.93;1904458;75;21122;-60
2021/08/11 03:46:35;;;;;;;30.00;15.98;;;;;;;21.01;90.68;100591.31;1890101;75;21238;-60
2021/08/11 03:49:04;;;;;;;28.45;14.20;;;;;;;21.01;90.67;100594.83;1906367;75;21125;-60
2021/08/11 03:51:33;;;;;;;28.95;15.13;;;;;;;21.02;90.65;100597.02;1919351;74;21524;-61
2021/08/11 03:54:02;;;;;;;26.97;16.20;;;;;;;21.04;90.65;100597.73;1902483;75;21061;-61
2021/08/11 03:56:31;;;;;;;36.08;20.88;;;;;;;21.06;90.62;100576.19;1902962;75;21844;-59
2021/08/11 03:59:00;;;;;;;39.83;20.55;;;;;;;21.09;90.55;100579.45;1940337;74;21046;-60
2021/08/11 04:01:29;;;;;;;24.35;14.23;;;;;;;21.11;90.50;100573.47;1937519;74;21133;-60
2021/08/11 04:03:57;;;;;;;25.85;12.53;;;;;;;21.14;90.46;100570.54;1937587;74;21556;-59
2021/08/11 04:06:25;;;;;;;23.35;11.53;;;;;;;21.18;90.39;100573.30;1937497;74;21047;-59
2021/08/11 04:08:53;;;;;;;20.65;12.50;;;;;;;21.21;90.35;100578.91;1937389;74;21042;-60
2021/08/11 04:11:21;;;;;;;24.90;14.68;;;;;;;21.25;90.30;100582.13;1937536;74;21038;-60
2021/08/11 04:13:49;;;;;;;23.15;13.93;;;;;;;21.28;90.25;100588.56;1937546;74;20999;-60
2021/08/11 04:16:17;;;;;;;22.70;11.45;;;;;;;21.31;90.22;100584.30;1937534;74;21038;-60
2021/08/11 04:18:45;;;;;;;17.82;11.00;;;;;;;21.34;90.17;100588.03;1937545;74;21038;-60
2021/08/11 04:21:13;;;;;;;24.32;10.32;;;;;;;21.36;90.12;100588.77;1937522;74;21046;-60
2021/08/11 04:23:41;;;;;;;21.40;11.03;;;;;;;21.37;90.06;100595.80;1937513;74;21133;-60
2021/08/11 04:26:09;;;;;;;19.27;10.58;;;;;;;21.38;89.99;100592.16;1925152;74;21048;-60
2021/08/11 04:28:37;;;;;;;21.37;11.25;;;;;;;21.41;89.93;100593.20;1930406;74;21571;-59
2021/08/11 04:31:05;;;;;;;21.02;10.53;;;;;;;21.45;89.87;100590.67;1930649;74;21083;-60
2021/08/11 04:33:33;;;;;;;18.82;11.03;;;;;;;21.49;89.81;100589.42;1923953;74;21145;-60
2021/08/11 04:36:01;;;;;;;30.95;11.68;;;;;;;21.56;89.72;100590.58;1923837;74;21030;-60
2021/08/11 04:38:29;;;;;;;19.95;10.58;;;;;;;21.63;89.67;100587.35;1923960;74;21034;-60
2021/08/11 04:40:57;;;;;;;19.48;11.78;;;;;;;21.68;89.62;100583.28;1924061;74;21103;-60
2021/08/11 04:43:25;;;;;;;21.42;12.47;;;;;;;21.76;89.55;100589.30;1923979;74;21091;-60
2021/08/11 04:45:53;;;;;;;23.35;12.60;;;;;;;21.83;89.50;100597.16;1924163;74;21445;-60
2021/08/11 04:48:20;;;;;;;20.75;12.18;;;;;;;21.92;89.43;100592.81;1923877;74;21030;-61
2021/08/11 04:50:48;;;;;;;19.98;12.13;;;;;;;22.03;89.39;100595.88;1923914;74;21026;-60
2021/08/11 04:53:16;;;;;;;21.20;12.20;;;;;;;22.14;89.39;100591.73;1924107;74;21528;-60
2021/08/11 04:55:44;;;;;;;25.02;12.40;;;;;;;22.24;89.37;100594.42;1924141;74;21434;-60
2021/08/11 04:58:12;;;;;;;19.77;11.18;;;;;;;22.35;89.34;100597.88;1923927;74;21100;-60
2021/08/11 05:00:40;;;;;;;18.32;11.38;;;;;;;22.45;89.24;100599.21;1923977;74;21026;-60
2021/08/11 05:03:08;;;;;;;22.80;12.00;;;;;;;22.53;89.08;100605.21;1923855;74;21096;-60
2021/08/11 05:05:37;;;;;;;25.17;11.93;;;;;;;22.59;88.89;100599.27;1924101;74;21618;-60
2021/08/11 05:08:05;;;;;;;16.62;10.65;;;;;;;22.63;88.66;100602.05;1923940;74;21041;-60
2021/08/11 05:10:34;;;;;;;20.23;11.03;;;;;;;22.66;88.49;100596.37;1923940;74;21109;-60
2021/08/11 05:13:02;;;;;;;20.45;15.00;;;;;;;22.71;88.34;100594.62;1924111;74;21049;-60
2021/08/11 05:15:29;;;;;;;44.98;40.23;;;;;;;22.74;88.19;100594.31;1923816;74;21037;-61
2021/08/11 05:17:57;;;;;;;30.90;26.40;;;;;;;22.75;88.00;100587.97;1924179;74;21511;-60
2021/08/11 05:20:25;;;;;;;36.45;31.73;;;;;;;22.74;87.76;100587.14;1923921;74;21045;-60
2021/08/11 05:22:53;;;;;;;26.30;17.67;;;;;;;22.70;87.64;100595.12;1923916;74;21042;-60
2021/08/11 05:25:21;;;;;;;23.10;15.58;;;;;;;22.65;87.59;100589.33;1923842;74;21074;-60
2021/08/11 05:27:49;;;;;;;20.62;14.68;;;;;;;22.64;87.49;100594.33;1923878;74;21022;-60
2021/08/11 05:30:17;;;;;;;22.17;15.20;;;;;;;22.66;87.42;100600.41;1923938;74;21019;-60
2021/08/11 05:32:45;;;;;;;26.85;18.42;;;;;;;22.68;87.33;100598.92;1924208;74;21140;-60
2021/08/11 05:35:13;;;;;;;25.55;16.45;;;;;;;22.72;87.28;100598.52;1923953;74;21474;-60
2021/08/11 05:37:44;;;;;;;27.10;18.07;;;;;;;22.79;87.25;100590.72;1923870;74;21114;-60
2021/08/11 05:40:16;;;;;;;29.37;16.42;;;;;;;22.86;87.23;100589.16;1923978;74;21011;-60
2021/08/11 05:42:42;;;;;;;25.62;15.23;;;;;;;22.92;87.18;100592.60;1923540;74;21107;-60
2021/08/11 05:45:11;;;;;;;27.32;15.98;;;;;;;22.95;87.05;100594.17;1924012;74;21108;-60
2021/08/11 05:47:39;;;;;;;22.80;16.25;;;;;;;22.98;87.05;100595.70;1923908;74;21119;-60
2021/08/11 05:50:08;;;;;;;30.15;20.17;;;;;;;22.99;87.02;100590.20;1923883;74;21070;-60
2021/08/11 05:52:36;;;;;;;30.43;18.48;;;;;;;22.98;87.01;100584.50;1923907;74;21037;-60
2021/08/11 05:55:04;;;;;;;21.15;13.22;;;;;;;22.97;87.00;100585.98;1923836;74;21037;-61
2021/08/11 05:57:34;;;;;;;22.30;14.13;;;;;;;22.94;86.98;100585.75;1923878;74;21011;-60
2021/08/11 06:00:04;;;;;;;24.32;14.98;;;;;;;22.92;86.91;100589.08;1923867;74;21037;-60
2021/08/11 06:02:43;;;;;;;27.17;16.20;;;;;;;22.93;86.87;100588.10;1923933;74;21481;-60
2021/08/11 06:05:19;;;;;;;27.50;17.73;;;;;;;22.96;86.88;100593.16;1922547;74;21120;-61
2021/08/11 06:07:48;;;;;;;30.00;19.87;;;;;;;22.99;86.83;100594.73;1924037;74;21141;-60
2021/08/11 06:10:17;;;;;;;38.23;25.23;;;;;;;23.01;86.83;100599.45;1923935;74;21118;-60
2021/08/11 06:12:47;;;;;;;36.65;24.23;;;;;;;23.04;86.90;100597.36;1923946;74;21018;-60
2021/08/11 06:15:16;;;;;;;35.35;25.27;;;;;;;23.07;86.93;100595.75;1923922;74;21457;-60
2021/08/11 06:17:46;;;;;;;39.67;28.60;;;;;;;23.12;86.95;100590.77;1923917;74;21100;-60
2021/08/11 06:20:17;;;;;;;39.25;30.48;;;;;;;23.19;86.96;100595.57;1923894;74;21441;-60
2021/08/11 06:22:47;;;;;;;38.98;30.55;;;;;;;23.26;86.98;100595.34;1922687;74;21493;-60
2021/08/11 06:25:17;;;;;;;37.42;27.48;;;;;;;23.33;86.87;100593.73;1921615;74;21462;-60
2021/08/11 06:27:46;;;;;;;32.85;24.05;;;;;;;23.41;86.75;100587.16;1890662;76;21023;-60
2021/08/11 06:30:16;;;;;;;35.70;23.38;;;;;;;23.59;86.59;100591.73;1890660;76;21540;-60
2021/08/11 06:32:44;;;;;;;29.92;21.65;;;;;;;23.78;86.37;100580.91;1890446;76;21548;-60
2021/08/11 06:35:13;;;;;;;31.00;21.37;;;;;;;24.00;86.02;100582.37;1890511;76;21034;-60
2021/08/11 06:37:51;;;;;;;32.67;18.80;;;;;;;24.25;85.57;100583.97;1890487;76;21028;-60
2021/08/11 06:40:21;;;;;;;29.10;16.93;;;;;;;24.49;85.12;100583.35;1890512;76;21035;-60
2021/08/11 06:42:51;;;;;;;24.50;14.53;;;;;;;24.78;84.72;100590.38;1890600;76;21063;-61
2021/08/11 06:45:21;;;;;;;23.62;14.30;;;;;;;24.98;84.25;100591.87;1889988;75;21642;-60
2021/08/11 06:47:51;;;;;;;23.15;13.68;;;;;;;25.12;83.74;100589.59;1890569;75;21470;-60
2021/08/11 06:50:21;;;;;;;22.75;13.62;;;;;;;25.25;82.98;100591.42;1890487;76;21567;-60
2021/08/11 06:52:49;;;;;;;29.25;16.42;;;;;;;25.33;82.36;100592.80;1890456;76;21015;-60
2021/08/11 06:55:20;;;;;;;30.43;15.50;;;;;;;25.42;81.90;100590.49;1890474;76;21039;-60
2021/08/11 06:57:50;;;;;;;31.42;16.12;;;;;;;25.68;81.40;100591.47;1890410;75;21054;-60
2021/08/11 07:00:20;;;;;;;31.52;15.40;;;;;;;26.04;80.81;100588.06;1890577;76;21109;-60
2021/08/11 07:02:49;;;;;;;30.52;14.73;;;;;;;26.15;80.30;100584.22;1890473;76;21585;-60
2021/08/11 07:05:18;;;;;;;26.52;14.75;;;;;;;26.02;79.73;100577.94;1890498;76;21622;-60
2021/08/11 07:07:46;;;;;;;27.00;14.73;;;;;;;25.99;79.13;100572.39;1890496;76;21042;-60
2021/08/11 07:10:16;;;;;;;23.87;14.03;;;;;;;26.07;78.57;100563.46;1890415;76;21055;-60
2021/08/11 07:12:45;;;;;;;25.52;13.90;;;;;;;26.14;77.80;100555.56;1890513;76;21477;-60
2021/08/11 07:15:14;;;;;;;25.62;16.05;;;;;;;26.30;77.66;100553.38;1890684;76;21082;-60
2021/08/11 07:17:54;;;;;;;26.25;12.65;;;;;;;26.57;77.45;100549.52;1890427;76;21155;-60
2021/08/11 07:20:24;;;;;;;21.42;13.50;;;;;;;27.11;77.08;100551.18;1890571;76;21042;-60
2021/08/11 07:22:55;;;;;;;26.48;14.05;;;;;;;27.73;75.84;100546.40;1889440;75;21106;-60
2021/08/11 07:25:24;;;;;;;22.05;13.28;;;;;;;28.44;74.87;100544.11;1890567;76;21108;-60
2021/08/11 07:27:53;;;;;;;18.17;10.03;;;;;;;29.18;72.99;100542.97;1892929;75;21144;-60
2021/08/11 07:30:22;;;;;;;16.42;10.75;;;;;;;29.87;70.51;100539.06;1893490;76;21038;-60
2021/08/11 07:32:50;;;;;;;16.93;9.80;;;;;;;30.17;66.79;100536.25;1893340;76;21489;-60
2021/08/11 07:35:22;;;;;;;16.52;10.80;;;;;;;30.57;65.76;100537.48;1859763;77;21096;-60
2021/08/11 07:37:53;;;;;;;16.02;10.30;;;;;;;31.00;64.18;100532.50;1893336;76;21501;-60
2021/08/11 07:40:23;;;;;;;16.10;10.32;;;;;;;31.31;62.45;100527.97;1893444;75;21003;-60
2021/08/11 07:42:52;;;;;;;16.42;10.78;;;;;;;31.60;62.41;100527.94;1893361;76;21003;-60
2021/08/11 07:45:22;;;;;;;16.05;9.98;;;;;;;32.04;62.04;100521.16;1893352;76;21033;-60
2021/08/11 07:47:58;;;;;;;11.75;7.72;;;;;;;32.51;60.75;100519.34;1893402;76;21180;-60
2021/08/11 07:50:26;;;;;;;12.88;8.03;;;;;;;32.97;58.66;100515.75;1893026;75;21015;-60
2021/08/11 07:52:55;;;;;;;12.07;8.55;;;;;;;33.11;55.53;100517.94;1893498;76;21015;-60
2021/08/11 07:55:25;;;;;;;10.50;7.78;;;;;;;33.18;55.57;100516.56;1888060;76;21489;-60
2021/08/11 07:57:53;;;;;;;13.05;7.40;;;;;;;33.05;54.18;100514.67;1888040;76;21493;-60
2021/08/11 08:00:23;;;;;;;11.90;8.13;;;;;;;32.87;54.52;100509.91;1888010;76;21124;-60
2021/08/11 08:02:53;;;;;;;11.10;7.58;;;;;;;32.79;54.52;100506.86;1888202;76;21530;-60
2021/08/11 08:05:22;;;;;;;10.82;6.60;;;;;;;32.98;53.88;100505.17;1888033;76;21487;-60
2021/08/11 08:07:51;;;;;;;11.95;7.37;;;;;;;32.87;53.53;100509.91;1888196;76;21144;-60
2021/08/11 08:10:20;;;;;;;9.63;6.72;;;;;;;32.79;53.84;100506.03;1888076;76;21136;-60
2021/08/11 08:12:48;;;;;;;8.03;4.62;;;;;;;32.56;54.10;100508.65;1888174;76;21174;-60
2021/08/11 08:15:17;;;;;;;9.88;4.95;;;;;;;32.37;54.33;100496.72;1888063;76;21038;-60
2021/08/11 08:17:46;;;;;;;5.08;3.50;;;;;;;31.97;53.56;100502.61;1888047;76;21046;-60
2021/08/11 08:20:17;;;;;;;5.70;3.37;;;;;;;31.39;53.00;100512.00;1888062;76;21070;-60
2021/08/11 08:22:47;;;;;;;7.37;4.03;;;;;;;31.09;53.02;100518.23;1888145;76;21038;-60
2021/08/11 08:25:21;;;;;;;6.03;4.55;;;;;;;31.17;53.47;100516.20;1887948;76;21441;-61
2021/08/11 08:27:54;;;;;;;7.03;4.65;;;;;;;31.31;53.53;100517.63;1908196;74;21083;-60
2021/08/11 08:30:23;;;;;;;7.40;4.67;;;;;;;31.26;53.49;100518.21;1928454;74;21039;-60
2021/08/11 08:32:52;;;;;;;6.67;4.62;;;;;;;31.37;53.51;100514.08;1928562;74;21043;-60
2021/08/11 08:35:20;;;;;;;7.90;4.25;;;;;;;31.31;53.35;100517.63;1928514;74;21133;-60
2021/08/11 08:37:49;;;;;;;8.40;4.05;;;;;;;31.07;53.99;100521.67;1928256;74;21530;-60
2021/08/11 08:40:18;;;;;;;6.00;3.83;;;;;;;30.76;53.92;100521.01;1928449;74;21028;-60
2021/08/11 08:42:48;;;;;;;8.65;4.08;;;;;;;30.85;54.49;100520.34;1928454;74;21055;-60
2021/08/11 08:45:16;;;;;;;4.97;3.80;;;;;;;31.23;54.15;100518.63;1928470;74;21055;-60
2021/08/11 08:47:46;;;;;;;5.42;3.98;;;;;;;31.12;54.09;100518.67;1928418;74;21129;-60
2021/08/11 08:50:22;;;;;;;6.22;3.85;;;;;;;30.76;54.60;100516.94;1928316;74;21482;-61
2021/08/11 08:52:47;;;;;;;4.62;3.42;;;;;;;30.51;54.90;100513.00;1928017;74;21060;-60
2021/08/11 08:55:17;;;;;;;7.03;3.33;;;;;;;30.58;55.60;100512.02;1928421;74;21555;-60
2021/08/11 08:57:46;;;;;;;4.83;3.50;;;;;;;31.27;55.16;100510.91;1928402;74;21040;-60
2021/08/11 09:00:16;;;;;;;3.92;3.00;;;;;;;31.20;54.02;100505.95;1928446;74;21466;-60
2021/08/11 09:02:45;;;;;;;7.12;4.22;;;;;;;30.81;54.44;100503.29;1928429;74;21043;-61
2021/08/11 09:05:14;;;;;;;4.92;4.00;;;;;;;30.74;54.84;100508.14;1928544;74;21040;-60
2021/08/11 09:07:48;;;;;;;6.20;3.25;;;;;;;31.28;54.53;100503.92;1928429;74;21109;-60
2021/08/11 09:10:28;;;;;;;3.60;2.10;;;;;;;31.47;53.21;100507.80;1934404;74;21117;-60
2021/08/11 09:13:08;;;;;;;5.20;2.30;;;;;;;30.97;53.37;100507.92;1898929;75;21108;-60
2021/08/11 09:15:45;;;;;;;3.10;1.90;;;;;;;30.38;53.96;100513.20;1934066;74;21108;-60
2021/08/11 09:18:22;;;;;;;4.92;2.65;;;;;;;29.96;55.09;100518.91;1928394;74;21047;-60
2021/08/11 09:21:03;;;;;;;5.75;2.17;;;;;;;29.40;56.60;100523.55;1928421;74;21152;-60
2021/08/11 09:23:39;;;;;;;4.17;2.00;;;;;;;28.78;58.66;100532.84;1933871;74;21524;-61
2021/08/11 09:26:11;;;;;;;9.60;2.05;;;;;;;28.35;60.10;100521.69;1898936;75;21070;-60
2021/08/11 09:28:42;;;;;;;4.50;2.15;;;;;;;27.95;61.16;100524.18;1928799;74;21195;-60
2021/08/11 09:31:32;;;;;;;4.33;2.62;;;;;;;27.53;62.95;100531.63;1889312;76;21136;-60
2021/08/11 09:34:03;;;;;;;5.15;2.52;;;;;;;27.11;64.36;100532.75;1923802;74;21086;-60
2021/08/11 09:36:48;;;;;;;5.65;3.50;;;;;;;26.99;64.91;100527.40;1889571;76;21145;-60
2021/08/11 09:39:14;;;;;;;5.00;2.80;;;;;;;26.90;64.97;100524.69;1887529;76;21140;-60
2021/08/11 09:42:04;;;;;;;6.45;3.02;;;;;;;26.76;65.59;100515.94;1923932;74;21541;-60
2021/08/11 09:44:34;;;;;;;5.12;3.35;;;;;;;26.98;65.36;100513.54;1889195;76;21086;-60
2021/08/11 09:47:14;;;;;;;5.80;3.98;;;;;;;27.39;64.45;100513.43;1924046;74;21034;-60
2021/08/11 09:49:44;;;;;;;7.35;5.00;;;;;;;27.78;63.64;100504.44;1888940;76;21019;-60
2021/08/11 09:52:12;;;;;;;6.45;4.70;;;;;;;28.22;62.29;100501.13;1920399;74;21100;-60
2021/08/11 09:54:44;;;;;;;5.97;4.30;;;;;;;28.47;61.25;100512.61;1889338;76;21238;-63
2021/08/11 09:57:30;;;;;;;8.80;4.62;;;;;;;28.66;60.70;100520.76;1918745;74;21544;-60
2021/08/11 09:59:59;;;;;;;7.33;4.10;;;;;;;28.74;60.05;100516.63;1889348;76;21047;-60
2021/08/11 10:02:28;;;;;;;5.28;3.87;;;;;;;28.75;59.97;100521.01;1923948;74;21070;-60
2021/08/11 10:04:56;;;;;;;6.22;4.08;;;;;;;28.90;60.33;100521.55;1889339;76;21050;-60
2021/08/11 10:07:25;;;;;;;5.08;3.80;;;;;;;28.99;59.14;100524.50;1923812;74;21019;-60
2021/08/11 10:10:08;;;;;;;7.12;4.58;;;;;;;29.11;58.88;100523.55;1889292;76;21474;-60
2021/08/11 10:12:37;;;;;;;7.97;4.58;;;;;;;29.32;57.77;100529.06;1924016;74;21015;-60
2021/08/11 10:15:07;;;;;;;6.62;4.25;;;;;;;29.25;58.27;100535.77;1889292;76;21610;-60
2021/08/11 10:17:37;;;;;;;6.60;3.70;;;;;;;29.32;57.94;100537.72;1923954;74;21014;-61
2021/08/11 10:20:08;;;;;;;7.80;4.15;;;;;;;29.42;58.60;100539.13;1889244;76;21146;-60
2021/08/11 10:22:39;;;;;;;4.42;3.37;;;;;;;29.38;57.48;100539.67;1924040;74;20998;-60
2021/08/11 10:25:09;;;;;;;4.90;3.42;;;;;;;29.26;57.41;100540.15;1889315;76;21030;-60
2021/08/11 10:27:40;;;;;;;5.25;3.90;;;;;;;29.15;57.55;100537.91;1923939;74;21141;-60
2021/08/11 10:30:10;;;;;;;4.35;3.87;;;;;;;29.12;56.68;100530.11;1888984;76;21101;-61
2021/08/11 10:32:39;;;;;;;6.90;4.70;;;;;;;29.06;57.48;100522.73;1923951;74;21043;-60
2021/08/11 10:35:09;;;;;;;6.78;3.75;;;;;;;29.17;57.95;100528.23;1889388;76;21108;-60
2021/08/11 10:37:39;;;;;;;4.80;3.77;;;;;;;29.20;57.61;100528.70;1924021;74;21100;-60
2021/08/11 10:40:08;;;;;;;5.12;3.60;;;;;;;29.20;57.15;100524.64;1889133;76;21549;-60
2021/08/11 10:42:38;;;;;;;3.67;2.95;;;;;;;29.02;56.32;100529.03;1921072;74;21517;-59
2021/08/11 10:45:07;;;;;;;6.60;3.50;;;;;;;28.83;57.79;100523.66;1919449;75;21015;-59
2021/08/11 10:47:36;;;;;;;4.37;3.10;;;;;;;28.80;58.36;100521.83;1919616;75;21114;-59
2021/08/11 10:50:08;;;;;;;2.67;2.25;;;;;;;28.68;57.50;100517.34;1919642;75;21007;-59
2021/08/11 10:52:36;;;;;;;3.92;2.25;;;;;;;28.68;58.02;100517.34;1919319;75;21031;-59
2021/08/11 10:55:07;;;;;;;4.80;2.65;;;;;;;28.68;58.24;100509.22;1919662;75;21112;-59
2021/08/11 10:57:40;;;;;;;3.27;1.90;;;;;;;28.73;58.13;100516.29;1919545;75;21039;-59
2021/08/11 11:00:20;;;;;;;2.92;1.77;;;;;;;28.75;56.98;100513.40;1919409;75;21514;-59
2021/08/11 11:02:52;;;;;;;2.95;1.92;;;;;;;28.77;57.38;100508.11;1915204;75;21063;-59
2021/08/11 11:05:27;;;;;;;3.47;2.00;;;;;;;28.88;58.24;100517.17;1919048;75;21047;-59
2021/08/11 11:08:15;;;;;;;3.77;1.95;;;;;;;29.06;58.78;100513.24;1919440;75;21015;-59
2021/08/11 11:10:46;;;;;;;4.47;2.22;;;;;;;29.19;59.47;100517.52;1919468;75;21067;-59
2021/08/11 11:13:31;;;;;;;3.30;2.02;;;;;;;29.24;59.03;100517.81;1919443;75;21019;-59
2021/08/11 11:16:03;;;;;;;4.00;2.47;;;;;;;29.16;58.39;100519.27;1919445;75;21035;-59
2021/08/11 11:18:33;;;;;;;2.85;2.35;;;;;;;29.06;59.10;100517.31;1919764;75;21082;-59
2021/08/11 11:21:05;;;;;;;4.53;2.80;;;;;;;29.11;59.45;100519.48;1919411;75;21671;-59
2021/08/11 11:23:40;;;;;;;5.17;3.25;;;;;;;29.30;59.90;100522.16;1919626;75;21501;-59
2021/08/11 11:26:14;;;;;;;4.53;2.92;;;;;;;29.39;60.35;100519.67;1919487;75;21160;-60
2021/08/11 11:29:17;;;;;;;4.78;3.12;;;;;;;29.49;60.33;100522.91;1917938;75;21035;-59
2021/08/11 11:31:52;;;;;;;7.87;3.92;;;;;;;29.67;60.08;100520.33;1918438;75;21110;-59